Time;durP1;ratioP1;P1;durP2;ratioP2;P2;SDS_P1;SDS_P2;PMS_P1;PMS_P2;Temp;Humidity;BMP_temperature;BMP_pressure;BME280_temperature;BME280_humidity;BME280_pressure;Samples;Min_cycle;Max_cycle;Signal;HPM_P1;HPM_P2
2021/07/13 00:02:16;;;;;;;22.63;18.10;;;;;;;;;;4974423;28;20461;-68
2021/07/13 00:04:43;;;;;;;21.55;18.77;;;;;;;;;;4974368;28;20030;-68
2021/07/13 00:07:09;;;;;;;21.75;18.45;;;;;;;;;;4973795;28;20298;-68
2021/07/13 00:09:34;;;;;;;21.63;18.00;;;;;;;;;;4972046;28;20026;-68
2021/07/13 00:12:00;;;;;;;23.60;18.55;;;;;;;;;;4974406;28;20074;-68
2021/07/13 00:14:27;;;;;;;21.75;18.85;;;;;;;;;;4971527;28;20516;-68
2021/07/13 00:16:53;;;;;;;24.80;19.20;;;;;;;;;;4971357;28;20034;-68
2021/07/13 00:19:19;;;;;;;22.17;19.55;;;;;;;;;;4974326;28;20027;-68
2021/07/13 00:21:45;;;;;;;25.73;20.50;;;;;;;;;;4973806;28;20026;-68
2021/07/13 00:24:11;;;;;;;22.30;18.52;;;;;;;;;;4973482;28;20030;-68
2021/07/13 00:26:37;;;;;;;25.40;18.77;;;;;;;;;;4973997;28;20033;-68
2021/07/13 00:29:06;;;;;;;21.63;18.95;;;;;;;;;;4970259;28;20027;-68
2021/07/13 00:31:33;;;;;;;23.73;20.17;;;;;;;;;;4972648;28;20027;-68
2021/07/13 00:33:59;;;;;;;25.42;19.35;;;;;;;;;;4972295;28;20035;-68
2021/07/13 00:36:26;;;;;;;24.40;19.85;;;;;;;;;;4973684;28;20042;-68
2021/07/13 00:38:51;;;;;;;23.65;19.98;;;;;;;;;;4973513;28;20468;-68
2021/07/13 00:41:17;;;;;;;24.65;20.48;;;;;;;;;;4974124;28;20113;-68
2021/07/13 00:43:44;;;;;;;24.60;20.42;;;;;;;;;;4972021;28;20396;-68
2021/07/13 00:46:11;;;;;;;23.85;19.60;;;;;;;;;;4973372;28;20759;-68
2021/07/13 00:48:37;;;;;;;22.10;19.15;;;;;;;;;;4972396;28;20519;-68
2021/07/13 00:51:03;;;;;;;26.60;21.88;;;;;;;;;;4971117;28;20388;-68
2021/07/13 00:53:29;;;;;;;26.95;21.35;;;;;;;;;;4972191;28;20026;-68
2021/07/13 00:55:58;;;;;;;27.63;21.85;;;;;;;;;;4971826;28;20081;-68
2021/07/13 00:58:25;;;;;;;31.13;23.23;;;;;;;;;;4972008;28;20027;-68
2021/07/13 01:00:51;;;;;;;28.02;22.58;;;;;;;;;;4972698;28;20027;-68
2021/07/13 01:03:17;;;;;;;27.02;20.55;;;;;;;;;;4973325;28;20097;-68
2021/07/13 01:05:47;;;;;;;28.35;23.50;;;;;;;;;;4971954;28;20469;-68
2021/07/13 01:08:24;;;;;;;27.70;23.23;;;;;;;;;;4968378;28;20031;-68
2021/07/13 01:11:00;;;;;;;27.45;21.50;;;;;;;;;;4971248;28;20026;-68
2021/07/13 01:13:29;;;;;;;28.30;22.85;;;;;;;;;;4968274;28;20443;-68
2021/07/13 01:16:09;;;;;;;27.25;22.17;;;;;;;;;;4972872;28;20030;-68
2021/07/13 01:18:35;;;;;;;;;;;;;;;;;;4970851;28;20019;-68
2021/07/13 01:21:20;;;;;;;29.67;22.30;;;;;;;;;;4972492;28;19913;-68
2021/07/13 01:24:05;;;;;;;30.42;22.20;;;;;;;;;;4972675;28;20109;-68
2021/07/13 01:26:43;;;;;;;29.25;23.17;;;;;;;;;;4968996;28;20559;-68
2021/07/13 01:29:11;;;;;;;30.13;24.17;;;;;;;;;;4972066;28;20566;-68
2021/07/13 01:31:38;;;;;;;31.00;24.23;;;;;;;;;;4972884;28;20042;-68
2021/07/13 01:34:08;;;;;;;30.83;24.52;;;;;;;;;;4970532;28;20376;-68
2021/07/13 01:36:37;;;;;;;32.40;26.17;;;;;;;;;;4968587;28;20038;-68
2021/07/13 01:39:04;;;;;;;41.60;26.75;;;;;;;;;;4972376;28;20389;-68
2021/07/13 01:41:31;;;;;;;34.80;27.17;;;;;;;;;;4972479;28;20034;-68
2021/07/13 01:43:58;;;;;;;40.17;30.35;;;;;;;;;;4970838;28;20027;-68
2021/07/13 01:46:25;;;;;;;47.85;32.58;;;;;;;;;;4969092;28;20022;-68
2021/07/13 01:48:54;;;;;;;53.15;36.75;;;;;;;;;;4971717;28;20057;-68
2021/07/13 01:51:21;;;;;;;59.07;39.17;;;;;;;;;;4972065;28;20097;-68
2021/07/13 01:53:47;;;;;;;56.22;37.92;;;;;;;;;;4971729;28;20288;-68
2021/07/13 01:56:14;;;;;;;57.20;39.97;;;;;;;;;;4972203;28;20029;-68
2021/07/13 01:58:40;;;;;;;55.45;38.17;;;;;;;;;;4972176;28;20019;-68
2021/07/13 02:01:11;;;;;;;53.28;38.60;;;;;;;;;;4972038;28;20018;-69
2021/07/13 02:03:38;;;;;;;62.50;39.70;;;;;;;;;;4973086;28;20035;-68
2021/07/13 02:06:04;;;;;;;55.00;40.03;;;;;;;;;;4972246;28;20034;-69
2021/07/13 02:08:30;;;;;;;55.92;39.45;;;;;;;;;;4972607;28;20436;-68
2021/07/13 02:10:57;;;;;;;64.60;41.33;;;;;;;;;;4966959;28;20121;-68
2021/07/13 02:13:23;;;;;;;59.25;40.88;;;;;;;;;;4972008;28;20172;-68
2021/07/13 02:15:48;;;;;;;56.03;40.10;;;;;;;;;;4972377;28;20031;-68
2021/07/13 02:18:14;;;;;;;57.42;40.72;;;;;;;;;;4970610;28;20452;-68
2021/07/13 02:20:40;;;;;;;57.20;42.38;;;;;;;;;;4964338;28;20051;-68
2021/07/13 02:23:07;;;;;;;54.97;38.88;;;;;;;;;;4972135;28;20105;-68
2021/07/13 02:25:33;;;;;;;55.92;41.10;;;;;;;;;;4971408;28;20030;-68
2021/07/13 02:28:16;;;;;;;59.92;43.00;;;;;;;;;;4971874;28;20030;-68
2021/07/13 02:30:43;;;;;;;67.53;45.15;;;;;;;;;;4971153;28;20109;-69
2021/07/13 02:33:19;;;;;;;67.03;45.78;;;;;;;;;;4971139;28;20435;-68
2021/07/13 02:35:49;;;;;;;75.10;48.25;;;;;;;;;;4971259;28;20484;-68
2021/07/13 02:38:15;;;;;;;77.05;50.40;;;;;;;;;;4971935;28;20094;-68
2021/07/13 02:40:41;;;;;;;84.95;54.17;;;;;;;;;;4967301;28;20035;-68
2021/07/13 02:43:07;;;;;;;98.38;59.35;;;;;;;;;;4971823;28;20034;-67
2021/07/13 02:45:33;;;;;;;95.15;58.53;;;;;;;;;;4970787;28;20026;-68
2021/07/13 02:48:00;;;;;;;99.50;59.17;;;;;;;;;;4971164;28;20122;-68
2021/07/13 02:50:27;;;;;;;106.18;64.20;;;;;;;;;;4970830;28;20099;-68
2021/07/13 02:52:54;;;;;;;98.75;61.60;;;;;;;;;;4971254;28;20034;-69
2021/07/13 02:55:21;;;;;;;107.78;63.53;;;;;;;;;;4971251;28;20480;-68
2021/07/13 02:57:49;;;;;;;102.40;60.28;;;;;;;;;;4969237;28;20034;-68
2021/07/13 03:00:16;;;;;;;107.50;63.63;;;;;;;;;;4970981;28;20026;-68
2021/07/13 03:02:43;;;;;;;107.57;64.43;;;;;;;;;;4970631;28;20162;-68
2021/07/13 03:05:12;;;;;;;100.78;62.22;;;;;;;;;;4971252;28;20042;-68
2021/07/13 03:07:38;;;;;;;;;;;;;;;;;;4970031;28;20254;-68
2021/07/13 03:10:05;;;;;;;105.80;63.65;;;;;;;;;;4963064;28;20315;-68
2021/07/13 03:12:31;;;;;;;103.53;63.60;;;;;;;;;;4963296;28;20042;-68
2021/07/13 03:14:58;;;;;;;101.07;63.78;;;;;;;;;;4971076;28;20023;-68
2021/07/13 03:17:24;;;;;;;98.00;61.65;;;;;;;;;;4971056;28;20357;-68
2021/07/13 03:19:50;;;;;;;98.70;61.05;;;;;;;;;;4968850;28;20034;-68
2021/07/13 03:22:23;;;;;;;99.38;59.95;;;;;;;;;;4970559;28;20034;-67
2021/07/13 03:24:50;;;;;;;94.10;59.08;;;;;;;;;;4971617;28;20126;-68
2021/07/13 03:27:16;;;;;;;98.00;59.90;;;;;;;;;;4966967;28;20034;-68
2021/07/13 03:29:42;;;;;;;94.82;58.00;;;;;;;;;;4967971;28;20023;-68
2021/07/13 03:32:08;;;;;;;91.95;57.38;;;;;;;;;;4970673;28;20034;-68
2021/07/13 03:34:34;;;;;;;93.13;57.50;;;;;;;;;;4971037;28;20101;-68
2021/07/13 03:37:01;;;;;;;93.78;57.47;;;;;;;;;;4970549;28;20102;-67
2021/07/13 03:39:27;;;;;;;90.07;57.78;;;;;;;;;;4970696;28;20053;-68
2021/07/13 03:41:53;;;;;;;89.57;56.45;;;;;;;;;;4969721;28;20084;-68
2021/07/13 03:44:19;;;;;;;80.82;53.58;;;;;;;;;;4965171;28;20105;-67
2021/07/13 03:46:46;;;;;;;87.03;54.47;;;;;;;;;;4967534;28;20551;-67
2021/07/13 03:49:12;;;;;;;81.63;52.60;;;;;;;;;;4971021;28;20034;-67
2021/07/13 03:51:42;;;;;;;76.03;49.33;;;;;;;;;;4970776;28;20075;-67
2021/07/13 03:54:09;;;;;;;79.75;50.97;;;;;;;;;;4968010;28;20026;-67
2021/07/13 03:56:35;;;;;;;73.20;48.45;;;;;;;;;;4971178;28;20023;-68
2021/07/13 03:59:01;;;;;;;74.68;47.80;;;;;;;;;;4970639;28;20065;-68
2021/07/13 04:01:27;;;;;;;69.28;46.33;;;;;;;;;;4970844;28;20102;-68
2021/07/13 04:03:53;;;;;;;73.28;48.03;;;;;;;;;;4970059;28;20031;-67
2021/07/13 04:06:19;;;;;;;70.60;47.40;;;;;;;;;;4971819;28;20050;-68
2021/07/13 04:08:45;;;;;;;71.00;45.78;;;;;;;;;;4974269;28;20475;-68
2021/07/13 04:11:11;;;;;;;65.55;44.00;;;;;;;;;;4972323;28;20027;-68
2021/07/13 04:13:37;;;;;;;64.93;44.78;;;;;;;;;;4973772;28;20043;-67
2021/07/13 04:16:04;;;;;;;66.40;46.25;;;;;;;;;;4973617;28;20030;-67
2021/07/13 04:18:30;;;;;;;64.03;45.33;;;;;;;;;;4973599;28;20031;-67
2021/07/13 04:20:55;;;;;;;71.82;47.35;;;;;;;;;;4976089;28;20038;-67
2021/07/13 04:23:21;;;;;;;69.93;46.83;;;;;;;;;;4975497;28;20033;-67
2021/07/13 04:25:48;;;;;;;67.55;46.45;;;;;;;;;;4982098;28;20480;-67
2021/07/13 04:28:14;;;;;;;72.47;44.80;;;;;;;;;;4974290;28;20035;-67
2021/07/13 04:30:40;;;;;;;65.85;45.85;;;;;;;;;;4973657;28;20031;-67
2021/07/13 04:33:06;;;;;;;69.90;47.33;;;;;;;;;;4972472;28;20033;-67
2021/07/13 04:35:31;;;;;;;69.18;44.75;;;;;;;;;;4973565;28;20141;-67
2021/07/13 04:37:57;;;;;;;66.90;45.58;;;;;;;;;;4973367;28;20031;-67
2021/07/13 04:40:23;;;;;;;70.38;48.00;;;;;;;;;;4973284;28;20029;-67
2021/07/13 04:42:49;;;;;;;70.75;47.20;;;;;;;;;;4973299;28;20392;-67
2021/07/13 04:45:15;;;;;;;70.30;46.78;;;;;;;;;;4973783;28;20034;-67
2021/07/13 04:47:42;;;;;;;73.80;48.53;;;;;;;;;;4972668;28;20027;-67
2021/07/13 04:50:09;;;;;;;67.40;44.83;;;;;;;;;;4973489;28;20030;-67
2021/07/13 04:52:35;;;;;;;70.70;44.70;;;;;;;;;;4973008;28;20117;-67
2021/07/13 04:55:01;;;;;;;63.72;42.83;;;;;;;;;;4971962;28;20022;-67
2021/07/13 04:57:27;;;;;;;60.58;41.95;;;;;;;;;;4972254;28;20034;-68
2021/07/13 04:59:53;;;;;;;66.18;43.08;;;;;;;;;;4969935;28;20054;-67
2021/07/13 05:02:20;;;;;;;62.30;40.88;;;;;;;;;;4973367;28;20403;-67
2021/07/13 05:04:46;;;;;;;66.90;44.38;;;;;;;;;;4973059;28;20026;-67
2021/07/13 05:07:12;;;;;;;66.97;42.75;;;;;;;;;;4973141;28;20114;-67
2021/07/13 05:09:37;;;;;;;63.75;42.70;;;;;;;;;;4964773;28;20031;-67
2021/07/13 05:12:04;;;;;;;68.85;44.47;;;;;;;;;;4973197;28;20085;-67
2021/07/13 05:14:30;;;;;;;67.85;42.45;;;;;;;;;;4973018;28;20027;-67
2021/07/13 05:16:55;;;;;;;62.30;42.03;;;;;;;;;;4971720;28;20144;-67
2021/07/13 05:19:22;;;;;;;67.88;43.42;;;;;;;;;;4972958;28;20046;-67
2021/07/13 05:22:00;;;;;;;66.47;43.45;;;;;;;;;;4972105;28;20089;-67
2021/07/13 05:24:26;;;;;;;67.90;42.88;;;;;;;;;;4967890;28;20027;-67
2021/07/13 05:26:52;;;;;;;63.72;41.70;;;;;;;;;;4969360;28;20027;-68
2021/07/13 05:29:18;;;;;;;68.00;43.63;;;;;;;;;;4973072;28;20027;-67
2021/07/13 05:31:45;;;;;;;67.63;43.15;;;;;;;;;;4971241;28;20077;-67
2021/07/13 05:34:11;;;;;;;65.88;42.70;;;;;;;;;;4972438;28;20031;-67
2021/07/13 05:36:37;;;;;;;67.32;43.08;;;;;;;;;;4972342;28;20035;-67
2021/07/13 05:39:05;;;;;;;64.60;41.97;;;;;;;;;;4970801;28;20436;-67
2021/07/13 05:41:31;;;;;;;59.78;39.75;;;;;;;;;;4968310;28;20173;-67
2021/07/13 05:43:57;;;;;;;62.13;39.90;;;;;;;;;;4971267;28;20051;-67
2021/07/13 05:46:23;;;;;;;58.20;38.78;;;;;;;;;;4972795;28;20023;-67
2021/07/13 05:48:49;;;;;;;57.55;38.50;;;;;;;;;;4970444;28;20027;-67
2021/07/13 05:51:15;;;;;;;60.53;40.05;;;;;;;;;;4972382;28;20396;-67
2021/07/13 05:53:41;;;;;;;63.10;40.58;;;;;;;;;;4972736;28;20027;-67
2021/07/13 05:56:10;;;;;;;62.25;41.75;;;;;;;;;;4971651;28;20033;-67
2021/07/13 05:58:37;;;;;;;62.97;41.05;;;;;;;;;;4968127;28;20023;-67
2021/07/13 06:01:04;;;;;;;70.65;42.50;;;;;;;;;;4969658;28;20542;-67
2021/07/13 06:03:30;;;;;;;64.95;43.10;;;;;;;;;;4971636;28;20050;-67
2021/07/13 06:05:56;;;;;;;68.78;44.50;;;;;;;;;;4971834;28;20037;-67
2021/07/13 06:08:22;;;;;;;64.60;42.53;;;;;;;;;;4969480;28;20029;-67
2021/07/13 06:10:48;;;;;;;71.60;43.15;;;;;;;;;;4970197;28;20117;-68
2021/07/13 06:13:14;;;;;;;62.78;42.47;;;;;;;;;;4971991;28;20109;-68
2021/07/13 06:15:40;;;;;;;61.38;41.53;;;;;;;;;;4969578;28;20022;-67
2021/07/13 06:18:05;;;;;;;61.15;43.15;;;;;;;;;;4970700;28;20026;-67
2021/07/13 06:20:33;;;;;;;59.78;42.15;;;;;;;;;;4968740;28;20034;-67
2021/07/13 06:22:59;;;;;;;65.47;43.70;;;;;;;;;;4970911;28;20031;-67
2021/07/13 06:25:25;;;;;;;64.45;42.60;;;;;;;;;;4969833;28;20042;-67
2021/07/13 06:27:51;;;;;;;61.65;41.90;;;;;;;;;;4969693;28;20031;-67
2021/07/13 06:30:18;;;;;;;58.95;41.03;;;;;;;;;;4969365;28;20023;-67
2021/07/13 06:32:44;;;;;;;62.85;43.55;;;;;;;;;;4968270;28;20707;-67
2021/07/13 06:35:11;;;;;;;62.72;43.78;;;;;;;;;;4968868;28;20037;-66
2021/07/13 06:37:37;;;;;;;65.32;43.45;;;;;;;;;;4968731;28;20041;-67
2021/07/13 06:40:04;;;;;;;69.50;43.80;;;;;;;;;;4969580;28;20031;-67
2021/07/13 06:42:30;;;;;;;63.33;41.60;;;;;;;;;;4969435;28;20019;-66
2021/07/13 06:44:55;;;;;;;60.42;39.90;;;;;;;;;;4971161;28;20085;-67
2021/07/13 06:47:21;;;;;;;58.75;40.58;;;;;;;;;;4970994;28;20027;-67
2021/07/13 06:49:47;;;;;;;57.50;39.35;;;;;;;;;;4971878;28;20081;-67
2021/07/13 06:52:13;;;;;;;52.90;39.55;;;;;;;;;;4969518;28;20063;-69
2021/07/13 06:54:39;;;;;;;58.65;42.97;;;;;;;;;;4972027;28;20058;-73
2021/07/13 06:57:05;;;;;;;60.55;42.78;;;;;;;;;;4969934;28;20023;-68
2021/07/13 06:59:33;;;;;;;61.25;43.47;;;;;;;;;;4969823;28;20019;-69
2021/07/13 07:01:59;;;;;;;61.40;42.08;;;;;;;;;;4970457;28;20033;-69
2021/07/13 07:04:25;;;;;;;61.40;42.90;;;;;;;;;;4969894;28;20007;-68
2021/07/13 07:06:51;;;;;;;66.32;43.03;;;;;;;;;;4970640;28;20410;-67
2021/07/13 07:09:17;;;;;;;62.67;43.47;;;;;;;;;;4968447;28;20166;-68
2021/07/13 07:11:43;;;;;;;60.17;41.70;;;;;;;;;;4971098;28;20031;-68
2021/07/13 07:14:09;;;;;;;57.33;40.50;;;;;;;;;;4970232;28;20106;-67
2021/07/13 07:16:35;;;;;;;60.25;39.25;;;;;;;;;;4969525;28;20022;-67
2021/07/13 07:19:01;;;;;;;56.85;39.17;;;;;;;;;;4970694;28;20019;-67
2021/07/13 07:21:27;;;;;;;55.65;37.75;;;;;;;;;;4969908;28;20089;-68
2021/07/13 07:23:53;;;;;;;50.58;35.80;;;;;;;;;;4971104;28;20027;-67
2021/07/13 07:26:19;;;;;;;49.97;35.15;;;;;;;;;;4970881;28;20476;-67
2021/07/13 07:28:45;;;;;;;48.60;36.25;;;;;;;;;;4970533;28;20033;-67
2021/07/13 07:31:11;;;;;;;53.75;37.42;;;;;;;;;;4970501;28;20027;-68
2021/07/13 07:33:37;;;;;;;48.03;35.92;;;;;;;;;;4971314;28;20113;-68
2021/07/13 07:36:03;;;;;;;51.90;34.58;;;;;;;;;;4970446;28;20109;-67
2021/07/13 07:38:29;;;;;;;49.28;34.53;;;;;;;;;;4970283;28;20078;-68
2021/07/13 07:40:55;;;;;;;48.58;34.92;;;;;;;;;;4971740;28;20038;-68
2021/07/13 07:43:21;;;;;;;41.72;31.85;;;;;;;;;;4974186;28;20106;-69
2021/07/13 07:45:47;;;;;;;47.30;34.95;;;;;;;;;;4972853;28;20118;-68
2021/07/13 07:48:13;;;;;;;46.10;33.15;;;;;;;;;;4966695;28;20023;-68
2021/07/13 07:50:39;;;;;;;44.75;35.03;;;;;;;;;;4971710;28;20498;-67
2021/07/13 07:53:05;;;;;;;47.97;34.88;;;;;;;;;;4971283;28;20395;-69
2021/07/13 07:55:32;;;;;;;49.33;35.17;;;;;;;;;;4968703;28;20503;-69
2021/07/13 07:57:58;;;;;;;48.80;33.40;;;;;;;;;;4974085;28;20030;-69
2021/07/13 08:00:25;;;;;;;46.90;34.50;;;;;;;;;;4973784;28;20031;-70
2021/07/13 08:02:51;;;;;;;48.75;34.35;;;;;;;;;;4974091;28;20084;-69
2021/07/13 08:05:17;;;;;;;46.15;33.72;;;;;;;;;;4980001;28;20050;-69
2021/07/13 08:07:45;;;;;;;48.70;34.65;;;;;;;;;;4984726;28;20411;-69
2021/07/13 08:10:11;;;;;;;44.67;31.67;;;;;;;;;;4980546;28;20464;-72
2021/07/13 08:12:38;;;;;;;46.17;34.08;;;;;;;;;;4973802;28;20066;-72
2021/07/13 08:15:04;;;;;;;47.65;33.13;;;;;;;;;;4972354;28;20089;-70
2021/07/13 08:17:30;;;;;;;45.92;32.72;;;;;;;;;;4973626;28;20101;-69
2021/07/13 08:19:56;;;;;;;47.63;34.03;;;;;;;;;;4974082;28;20484;-71
2021/07/13 08:22:22;;;;;;;49.47;34.35;;;;;;;;;;4971305;28;20101;-70
2021/07/13 08:24:48;;;;;;;45.00;32.88;;;;;;;;;;4973704;28;20030;-70
2021/07/13 08:27:14;;;;;;;46.42;33.22;;;;;;;;;;4973579;28;20151;-69
2021/07/13 08:29:40;;;;;;;45.95;30.98;;;;;;;;;;4973582;28;20115;-70
2021/07/13 08:32:06;;;;;;;47.85;31.42;;;;;;;;;;4972915;28;20033;-68
2021/07/13 08:34:34;;;;;;;43.70;31.63;;;;;;;;;;4974088;28;20450;-68
2021/07/13 08:37:00;;;;;;;45.55;31.02;;;;;;;;;;4971356;28;20023;-67
2021/07/13 08:39:26;;;;;;;47.53;32.38;;;;;;;;;;4969955;28;20125;-68
2021/07/13 08:41:52;;;;;;;44.15;30.40;;;;;;;;;;4972234;28;20461;-68
2021/07/13 08:44:19;;;;;;;43.22;30.73;;;;;;;;;;4973336;28;20121;-68
2021/07/13 08:46:45;;;;;;;45.80;30.27;;;;;;;;;;4973470;28;20026;-68
2021/07/13 08:49:12;;;;;;;45.08;29.90;;;;;;;;;;4973413;28;20053;-68
2021/07/13 08:51:39;;;;;;;43.53;29.08;;;;;;;;;;4973252;28;20520;-68
2021/07/13 08:54:05;;;;;;;42.95;29.13;;;;;;;;;;4968862;28;20066;-68
2021/07/13 08:56:32;;;;;;;46.20;30.42;;;;;;;;;;4972916;28;20651;-68
2021/07/13 08:58:58;;;;;;;40.92;29.92;;;;;;;;;;4972584;28;20023;-68
2021/07/13 09:01:24;;;;;;;45.95;30.60;;;;;;;;;;4973340;28;20031;-68
2021/07/13 09:03:57;;;;;;;41.90;30.42;;;;;;;;;;4972113;28;20043;-68
2021/07/13 09:06:24;;;;;;;44.03;29.77;;;;;;;;;;4924295;23;20399;-68
2021/07/13 09:08:50;;;;;;;41.08;28.88;;;;;;;;;;4871053;28;20041;-67
2021/07/13 09:11:18;;;;;;;46.95;30.67;;;;;;;;;;4886158;28;20027;-68
2021/07/13 09:13:46;;;;;;;46.00;31.38;;;;;;;;;;4876916;28;20072;-67
2021/07/13 09:16:16;;;;;;;44.08;28.75;;;;;;;;;;4882853;28;20100;-67
2021/07/13 09:18:54;;;;;;;43.03;29.48;;;;;;;;;;4859438;28;20063;-68
2021/07/13 09:21:22;;;;;;;41.20;29.25;;;;;;;;;;4862240;28;20025;-67
2021/07/13 09:24:06;;;;;;;42.42;28.70;;;;;;;;;;4886190;28;20036;-67
2021/07/13 09:26:46;;;;;;;38.17;27.85;;;;;;;;;;4859264;28;20037;-67
2021/07/13 09:29:30;;;;;;;40.45;28.83;;;;;;;;;;4886652;28;20462;-68
2021/07/13 09:32:14;;;;;;;41.90;27.60;;;;;;;;;;4857428;28;20069;-68
2021/07/13 09:35:09;;;;;;;41.20;28.40;;;;;;;;;;4876165;28;20382;-68
2021/07/13 09:37:36;;;;;;;38.65;27.73;;;;;;;;;;4860739;28;20064;-68
2021/07/13 09:40:09;;;;;;;44.20;28.17;;;;;;;;;;4881895;28;20029;-68
2021/07/13 09:42:37;;;;;;;37.33;27.48;;;;;;;;;;4871320;28;20028;-68
2021/07/13 09:45:20;;;;;;;40.28;28.08;;;;;;;;;;4873119;28;20059;-67
2021/07/13 09:47:47;;;;;;;39.90;28.23;;;;;;;;;;4881705;28;20482;-68
2021/07/13 09:50:14;;;;;;;38.80;27.17;;;;;;;;;;4898938;28;20033;-67
2021/07/13 09:52:40;;;;;;;41.80;28.77;;;;;;;;;;4885346;28;20030;-67
2021/07/13 09:55:16;;;;;;;38.67;27.63;;;;;;;;;;4892365;28;20021;-67
2021/07/13 09:57:42;;;;;;;36.28;25.10;;;;;;;;;;4903083;28;20377;-67
2021/07/13 10:00:08;;;;;;;32.08;24.20;;;;;;;;;;4890342;28;20028;-67
2021/07/13 10:02:34;;;;;;;38.33;25.73;;;;;;;;;;4891457;28;20025;-68
2021/07/13 10:05:03;;;;;;;39.00;27.20;;;;;;;;;;4899396;28;20032;-67
2021/07/13 10:07:30;;;;;;;37.70;26.63;;;;;;;;;;4882777;28;20033;-67
2021/07/13 10:09:56;;;;;;;40.20;25.30;;;;;;;;;;4884930;28;20107;-68
2021/07/13 10:12:23;;;;;;;35.55;26.08;;;;;;;;;;4878585;28;20033;-67
2021/07/13 10:14:56;;;;;;;38.58;26.92;;;;;;;;;;4892676;28;20030;-67
2021/07/13 10:17:25;;;;;;;35.35;27.05;;;;;;;;;;4866620;28;20156;-68
2021/07/13 10:19:51;;;;;;;38.13;27.02;;;;;;;;;;4869927;28;20026;-67
2021/07/13 10:22:22;;;;;;;41.65;27.67;;;;;;;;;;4876229;28;20025;-68
2021/07/13 10:24:49;;;;;;;36.10;25.77;;;;;;;;;;4862437;28;20081;-68
2021/07/13 10:27:25;;;;;;;38.40;24.88;;;;;;;;;;4880023;28;20025;-67
2021/07/13 10:29:51;;;;;;;38.88;25.30;;;;;;;;;;4874749;28;20045;-67
2021/07/13 10:32:17;;;;;;;33.83;24.88;;;;;;;;;;4859988;28;20076;-67
2021/07/13 10:34:47;;;;;;;32.65;24.48;;;;;;;;;;4874929;28;20057;-67
2021/07/13 10:37:27;;;;;;;34.78;25.55;;;;;;;;;;4890047;28;20525;-67
2021/07/13 10:39:54;;;;;;;;;;;;;;;;;;4858685;28;20033;-67
2021/07/13 10:42:38;;;;;;;35.45;26.48;;;;;;;;;;4869409;28;19919;-67
2021/07/13 10:45:18;;;;;;;35.53;25.02;;;;;;;;;;4868468;28;20037;-67
2021/07/13 10:48:03;;;;;;;34.65;25.27;;;;;;;;;;4881714;28;20034;-68
2021/07/13 10:50:29;;;;;;;37.60;24.38;;;;;;;;;;4860572;28;20044;-67
2021/07/13 10:53:03;;;;;;;36.35;24.75;;;;;;;;;;4889960;28;20516;-67
2021/07/13 10:55:33;;;;;;;34.70;23.55;;;;;;;;;;4860610;28;20147;-67
2021/07/13 10:58:14;;;;;;;33.45;25.35;;;;;;;;;;4863135;28;20017;-66
2021/07/13 11:00:49;;;;;;;37.20;24.55;;;;;;;;;;4860927;28;20029;-67
2021/07/13 11:03:42;;;;;;;34.30;24.85;;;;;;;;;;4869074;28;20033;-67
2021/07/13 11:06:08;;;;;;;38.75;26.60;;;;;;;;;;4892390;28;20409;-67
2021/07/13 11:08:40;;;;;;;35.65;24.33;;;;;;;;;;4863134;28;20042;-66
2021/07/13 11:11:09;;;;;;;31.10;23.60;;;;;;;;;;4871324;28;20025;-67
2021/07/13 11:13:36;;;;;;;37.90;25.52;;;;;;;;;;4867327;28;20037;-67
2021/07/13 11:16:02;;;;;;;35.25;25.67;;;;;;;;;;4890444;28;20371;-67
2021/07/13 11:18:33;;;;;;;38.95;27.98;;;;;;;;;;4859233;28;20022;-68
2021/07/13 11:21:18;;;;;;;33.63;26.25;;;;;;;;;;4913093;28;20103;-67
2021/07/13 11:23:45;;;;;;;38.67;27.67;;;;;;;;;;4871238;28;20029;-67
2021/07/13 11:26:13;;;;;;;34.83;26.30;;;;;;;;;;4889995;28;20576;-66
2021/07/13 11:28:39;;;;;;;36.47;26.73;;;;;;;;;;4881844;28;20037;-66
2021/07/13 11:31:06;;;;;;;36.10;25.70;;;;;;;;;;4878967;28;20094;-66
2021/07/13 11:33:33;;;;;;;36.17;26.05;;;;;;;;;;4899504;28;20116;-66
2021/07/13 11:36:00;;;;;;;34.47;26.40;;;;;;;;;;4914365;28;20032;-66
2021/07/13 11:38:30;;;;;;;36.47;25.45;;;;;;;;;;4878482;28;20417;-66
2021/07/13 11:41:11;;;;;;;33.13;23.80;;;;;;;;;;4881157;28;20576;-66
2021/07/13 11:43:37;;;;;;;36.70;26.15;;;;;;;;;;4914830;28;20023;-66
2021/07/13 11:46:18;;;;;;;36.72;25.80;;;;;;;;;;4874096;28;20029;-66
2021/07/13 11:48:54;;;;;;;32.60;24.55;;;;;;;;;;4880422;28;20056;-67
2021/07/13 11:51:27;;;;;;;36.05;24.63;;;;;;;;;;4871958;28;20036;-66
2021/07/13 11:53:57;;;;;;;35.83;23.98;;;;;;;;;;4879869;28;20033;-67
2021/07/13 11:56:26;;;;;;;29.05;22.15;;;;;;;;;;4881767;28;20036;-67
2021/07/13 11:58:52;;;;;;;32.25;23.45;;;;;;;;;;4880956;28;20033;-67
2021/07/13 12:01:21;;;;;;;32.10;21.02;;;;;;;;;;4880340;28;20027;-67
2021/07/13 12:03:47;;;;;;;32.13;22.13;;;;;;;;;;4878816;28;20459;-67
2021/07/13 12:06:14;;;;;;;31.35;21.90;;;;;;;;;;4883985;28;20764;-67
2021/07/13 12:08:40;;;;;;;32.42;22.55;;;;;;;;;;4878465;28;20036;-67
2021/07/13 12:11:06;;;;;;;30.20;23.15;;;;;;;;;;4879914;28;20034;-67
2021/07/13 12:13:32;;;;;;;31.83;21.00;;;;;;;;;;4876970;28;20025;-67
2021/07/13 12:16:16;;;;;;;28.05;21.40;;;;;;;;;;4876926;28;20036;-67
2021/07/13 12:18:41;;;;;;;27.80;19.63;;;;;;;;;;4863739;28;20025;-67
2021/07/13 12:21:07;;;;;;;27.13;18.55;;;;;;;;;;4932105;28;20029;-67
2021/07/13 12:23:33;;;;;;;26.48;19.00;;;;;;;;;;4872493;28;20036;-67
2021/07/13 12:26:18;;;;;;;29.15;19.98;;;;;;;;;;4889473;28;20172;-67
2021/07/13 12:29:23;;;;;;;25.52;18.75;;;;;;;;;;4878027;28;20032;-67
2021/07/13 12:31:50;;;;;;;26.48;19.60;;;;;;;;;;4891796;28;20040;-67
2021/07/13 12:34:16;;;;;;;26.23;18.88;;;;;;;;;;4942948;28;20026;-67
2021/07/13 12:36:43;;;;;;;25.77;18.67;;;;;;;;;;4897755;28;20038;-67
2021/07/13 12:39:19;;;;;;;26.52;18.02;;;;;;;;;;4863512;28;20053;-67
2021/07/13 12:41:59;;;;;;;24.48;17.58;;;;;;;;;;4874342;29;20033;-67
2021/07/13 12:44:28;;;;;;;21.80;17.65;;;;;;;;;;4888291;28;20573;-67
2021/07/13 12:46:54;;;;;;;22.33;17.65;;;;;;;;;;4877039;28;20036;-66
2021/07/13 12:49:28;;;;;;;25.23;18.73;;;;;;;;;;4877089;28;20052;-67
2021/07/13 12:51:54;;;;;;;23.45;17.55;;;;;;;;;;4881113;28;20108;-67
2021/07/13 12:54:20;;;;;;;22.60;15.75;;;;;;;;;;4898446;28;20110;-67
2021/07/13 12:56:46;;;;;;;24.48;14.75;;;;;;;;;;4898909;28;20029;-68
2021/07/13 12:59:12;;;;;;;19.77;14.73;;;;;;;;;;4892122;28;20023;-69
2021/07/13 13:01:38;;;;;;;16.98;13.68;;;;;;;;;;4878140;28;20021;-68
2021/07/13 13:04:14;;;;;;;20.42;14.82;;;;;;;;;;4885569;28;20548;-68
2021/07/13 13:06:42;;;;;;;20.63;15.30;;;;;;;;;;4868443;28;20036;-67
2021/07/13 13:09:10;;;;;;;21.98;15.52;;;;;;;;;;4880284;28;20029;-68
2021/07/13 13:11:37;;;;;;;19.52;15.07;;;;;;;;;;4875466;28;20389;-67
2021/07/13 13:14:05;;;;;;;22.33;16.02;;;;;;;;;;4900648;28;20311;-67
2021/07/13 13:16:31;;;;;;;22.52;15.40;;;;;;;;;;4892670;28;20018;-67
2021/07/13 13:18:59;;;;;;;22.30;16.73;;;;;;;;;;4873837;28;20040;-67
2021/07/13 13:21:26;;;;;;;20.75;15.32;;;;;;;;;;4892045;28;20071;-67
2021/07/13 13:23:53;;;;;;;24.05;16.77;;;;;;;;;;4874868;28;20029;-67
2021/07/13 13:26:18;;;;;;;25.75;17.17;;;;;;;;;;4874990;28;20032;-67
2021/07/13 13:28:44;;;;;;;24.52;16.48;;;;;;;;;;4874386;28;20037;-67
2021/07/13 13:31:10;;;;;;;21.63;16.02;;;;;;;;;;4920309;28;20038;-67
2021/07/13 13:33:38;;;;;;;23.38;16.27;;;;;;;;;;4904103;28;20078;-67
2021/07/13 13:40:58;;;;;;;21.02;15.05;;;;;;;;;;4859460;28;20080;-67
2021/07/13 13:43:24;;;;;;;23.98;15.65;;;;;;;;;;4856387;28;20037;-67
2021/07/13 13:45:50;;;;;;;22.98;16.40;;;;;;;;;;4869781;28;20115;-67
2021/07/13 13:48:16;;;;;;;23.50;15.88;;;;;;;;;;4930419;28;20070;-67
2021/07/13 13:50:42;;;;;;;25.05;17.65;;;;;;;;;;4879864;28;20124;-67
2021/07/13 13:53:08;;;;;;;24.42;17.98;;;;;;;;;;4898865;28;20033;-67
2021/07/13 13:55:34;;;;;;;24.13;17.23;;;;;;;;;;4872964;28;20040;-67
2021/07/13 13:58:00;;;;;;;24.92;16.73;;;;;;;;;;4890284;28;20019;-67
2021/07/13 14:00:26;;;;;;;25.27;16.52;;;;;;;;;;4896039;28;20393;-67
2021/07/13 14:02:53;;;;;;;31.35;17.58;;;;;;;;;;4894692;28;20310;-67
2021/07/13 14:05:20;;;;;;;25.50;18.55;;;;;;;;;;4873559;28;20149;-67
2021/07/13 14:07:46;;;;;;;26.27;18.05;;;;;;;;;;4876049;28;20037;-67
2021/07/13 14:10:12;;;;;;;28.45;18.67;;;;;;;;;;4899355;28;20037;-67
2021/07/13 14:12:38;;;;;;;32.67;19.60;;;;;;;;;;4876973;28;20398;-68
2021/07/13 14:15:06;;;;;;;25.35;17.88;;;;;;;;;;4874940;28;20032;-66
2021/07/13 14:17:32;;;;;;;24.08;16.13;;;;;;;;;;4871026;28;20034;-67
2021/07/13 14:19:58;;;;;;;28.02;17.10;;;;;;;;;;4859998;28;20036;-67
2021/07/13 14:22:27;;;;;;;26.15;17.40;;;;;;;;;;4864196;28;20036;-66
2021/07/13 14:24:53;;;;;;;26.90;15.77;;;;;;;;;;4868557;28;20485;-67
2021/07/13 14:27:19;;;;;;;25.48;16.08;;;;;;;;;;4859780;28;20025;-67
2021/07/13 14:29:46;;;;;;;21.63;13.70;;;;;;;;;;4872628;28;20029;-67